createdAt,value
2018-03-19T00:02:13.020Z,11.43
2018-03-19T00:04:42.235Z,12.73
2018-03-19T00:07:11.309Z,13.00
2018-03-19T00:09:41.165Z,12.70
2018-03-19T00:12:10.278Z,11.70
2018-03-19T00:14:39.365Z,12.33
2018-03-19T00:17:08.483Z,12.33
2018-03-19T00:19:37.574Z,12.47
2018-03-19T00:22:06.669Z,11.40
2018-03-19T00:24:35.758Z,14.47
2018-03-19T00:27:04.864Z,12.03
2018-03-19T00:29:33.989Z,12.30
2018-03-19T00:32:03.842Z,12.53
2018-03-19T00:34:32.950Z,12.40
2018-03-19T00:37:02.052Z,12.30
2018-03-19T00:39:31.161Z,12.90
2018-03-19T00:42:00.253Z,12.90
2018-03-19T00:44:29.379Z,12.90
2018-03-19T00:46:59.234Z,12.20
2018-03-19T00:49:28.350Z,12.13
2018-03-19T00:51:57.458Z,12.03
2018-03-19T00:54:26.558Z,12.10
2018-03-19T00:56:55.648Z,12.80
2018-03-19T00:59:24.769Z,11.80
2018-03-19T01:01:54.621Z,11.60
2018-03-19T01:04:24.504Z,11.63
2018-03-19T01:06:54.371Z,11.93
2018-03-19T01:09:23.449Z,12.40
2018-03-19T01:11:52.567Z,12.20
2018-03-19T01:14:21.655Z,10.97
2018-03-19T01:16:50.766Z,12.43
2018-03-19T01:19:19.857Z,11.73
2018-03-19T01:21:48.995Z,13.10
2018-03-19T01:24:18.851Z,12.53
2018-03-19T01:26:47.969Z,12.60
2018-03-19T01:29:17.046Z,12.23
2018-03-19T01:31:46.151Z,12.73
2018-03-19T01:34:15.248Z,13.10
2018-03-19T01:36:44.326Z,13.17
2018-03-19T01:39:13.439Z,12.93
2018-03-19T01:41:42.526Z,12.53
2018-03-19T01:44:12.415Z,12.30
2018-03-19T01:46:41.503Z,13.40
2018-03-19T01:49:10.612Z,12.13
2018-03-19T01:51:39.696Z,13.13
2018-03-19T01:54:08.798Z,11.30
2018-03-19T01:56:37.894Z,10.83
2018-03-19T01:59:07.017Z,11.33
2018-03-19T02:01:36.107Z,11.40
2018-03-19T02:04:05.226Z,11.90
2018-03-19T02:06:34.328Z,12.90
2018-03-19T02:09:03.430Z,11.27
2018-03-19T02:11:32.528Z,13.63
2018-03-19T02:14:01.618Z,13.30
2018-03-19T02:16:30.722Z,11.50
2018-03-19T02:19:00.626Z,12.10
2018-03-19T02:21:29.713Z,12.77
2018-03-19T02:23:58.810Z,11.10
2018-03-19T02:26:27.922Z,12.50
2018-03-19T02:28:57.011Z,12.70
2018-03-19T02:31:26.118Z,11.60
2018-03-19T02:33:55.198Z,13.07
2018-03-19T02:36:24.318Z,11.30
2018-03-19T02:38:54.177Z,12.10
2018-03-19T02:41:23.254Z,13.23
2018-03-19T02:43:52.370Z,11.87
2018-03-19T02:46:21.481Z,12.70
2018-03-19T02:48:50.578Z,11.20
2018-03-19T02:51:19.695Z,11.13
2018-03-19T02:53:48.811Z,11.27
2018-03-19T02:56:19.438Z,11.30
2018-03-19T02:58:49.334Z,10.63
2018-03-19T03:01:18.424Z,10.30
2018-03-19T03:03:47.535Z,10.83
2018-03-19T03:06:16.666Z,11.63
2018-03-19T03:08:45.771Z,11.20
2018-03-19T03:11:14.873Z,11.67
2018-03-19T03:13:43.962Z,11.90
2018-03-19T03:16:13.078Z,10.77
2018-03-19T03:18:42.196Z,12.10
2018-03-19T03:21:11.352Z,11.23
2018-03-19T03:23:40.406Z,11.60
2018-03-19T03:26:10.262Z,11.70
2018-03-19T03:28:39.377Z,13.13
2018-03-19T03:31:08.466Z,13.07
2018-03-19T03:33:37.562Z,12.10
2018-03-19T03:36:06.676Z,12.57
2018-03-19T03:38:35.770Z,11.13
2018-03-19T03:41:04.857Z,12.77
2018-03-19T03:43:33.961Z,12.27
2018-03-19T03:46:03.063Z,11.57
2018-03-19T03:48:32.162Z,12.90
2018-03-19T03:51:01.268Z,13.07
2018-03-19T03:53:30.385Z,12.20
2018-03-19T03:56:00.261Z,12.47
2018-03-19T03:58:29.350Z,12.70
2018-03-19T04:00:58.476Z,12.07
2018-03-19T04:03:27.556Z,11.90
2018-03-19T04:05:56.658Z,11.47
2018-03-19T04:08:25.745Z,11.33
2018-03-19T04:10:54.876Z,12.67
2018-03-19T04:13:24.719Z,11.83
2018-03-19T04:15:53.827Z,11.87
2018-03-19T04:18:22.910Z,12.50
2018-03-19T04:20:52.018Z,12.70
2018-03-19T04:23:21.119Z,10.60
2018-03-19T04:25:50.202Z,13.60
2018-03-19T04:28:19.323Z,13.10
2018-03-19T04:30:48.395Z,12.37
2018-03-19T04:33:17.504Z,12.93
2018-03-19T04:35:46.627Z,12.17
2018-03-19T04:38:15.729Z,13.30
2018-03-19T04:40:44.830Z,12.10
2018-03-19T04:43:13.937Z,12.03
2018-03-19T04:45:43.786Z,11.77
2018-03-19T04:48:12.886Z,12.10
2018-03-19T04:50:41.982Z,13.00
2018-03-19T04:53:11.098Z,13.80
2018-03-19T04:55:40.193Z,12.60
2018-03-19T04:58:09.307Z,12.60
2018-03-19T05:00:38.415Z,12.63
2018-03-19T05:03:07.517Z,13.30
2018-03-19T05:05:36.619Z,12.97
2018-03-19T05:08:06.471Z,13.13
2018-03-19T05:10:35.576Z,13.70
2018-03-19T05:13:04.667Z,13.80
2018-03-19T05:15:33.783Z,12.07
2018-03-19T05:18:02.879Z,12.13
2018-03-19T05:20:31.965Z,12.00
2018-03-19T05:23:01.074Z,12.10
2018-03-19T05:25:30.167Z,13.83
2018-03-19T05:27:59.281Z,12.90
2018-03-19T05:30:28.370Z,13.93
2018-03-19T05:32:57.477Z,13.03
2018-03-19T05:35:26.595Z,12.33
2018-03-19T05:37:56.475Z,14.43
2018-03-19T05:40:25.602Z,10.60
2018-03-19T05:42:55.470Z,12.47
2018-03-19T05:45:24.574Z,12.80
2018-03-19T05:47:53.682Z,13.80
2018-03-19T05:50:22.777Z,12.37
2018-03-19T05:52:51.892Z,12.03
2018-03-19T05:55:20.980Z,13.77
2018-03-19T05:57:50.087Z,11.50
2018-03-19T06:00:19.978Z,13.83
2018-03-19T06:02:49.081Z,12.57
2018-03-19T06:05:18.193Z,14.23
2018-03-19T06:07:47.277Z,11.57
2018-03-19T06:10:16.399Z,12.50
2018-03-19T06:12:46.263Z,13.03
2018-03-19T06:15:15.362Z,13.97
2018-03-19T06:17:44.452Z,14.57
2018-03-19T06:20:13.553Z,12.80
2018-03-19T06:22:42.663Z,12.83
2018-03-19T06:25:11.796Z,13.20
2018-03-19T06:27:41.643Z,12.43
2018-03-19T06:30:10.746Z,14.50
2018-03-19T06:32:39.848Z,12.80
2018-03-19T06:35:08.974Z,12.70
2018-03-19T06:37:38.071Z,14.33
2018-03-19T06:40:07.936Z,13.30
2018-03-19T06:42:37.065Z,12.83
2018-03-19T06:45:06.177Z,13.50
2018-03-19T06:47:35.288Z,13.23
2018-03-19T06:50:04.393Z,14.03
2018-03-19T06:52:34.302Z,13.73
2018-03-19T06:55:03.408Z,14.17
2018-03-19T06:57:34.112Z,12.70
2018-03-19T07:00:03.241Z,13.93
2018-03-19T07:02:33.086Z,14.80
2018-03-19T07:05:02.204Z,12.47
2018-03-19T07:07:32.110Z,13.40
2018-03-19T07:10:01.203Z,12.87
2018-03-19T07:12:30.317Z,13.03
2018-03-19T07:14:59.461Z,13.37
2018-03-19T07:17:28.560Z,12.77
2018-03-19T07:19:57.675Z,16.10
2018-03-19T07:22:26.779Z,14.63
2018-03-19T07:24:55.882Z,14.43
2018-03-19T07:27:24.966Z,13.40
2018-03-19T07:29:54.098Z,13.30
2018-03-19T07:32:23.201Z,14.77
2018-03-19T07:34:52.311Z,13.30
2018-03-19T07:37:22.219Z,13.27
2018-03-19T07:39:51.311Z,14.23
2018-03-19T07:42:21.161Z,15.13
2018-03-19T07:44:50.284Z,14.20
2018-03-19T07:47:19.378Z,13.80
2018-03-19T07:49:48.478Z,14.43
2018-03-19T07:52:18.449Z,13.90
2018-03-19T07:54:47.572Z,13.90
2018-03-19T07:57:17.111Z,14.67
2018-03-19T07:59:46.189Z,13.83
2018-03-19T08:02:15.300Z,16.20
2018-03-19T08:04:44.407Z,15.50
2018-03-19T08:07:13.494Z,17.10
2018-03-19T08:09:42.623Z,15.73
2018-03-19T08:12:12.488Z,14.10
2018-03-19T08:14:41.587Z,14.10
2018-03-19T08:17:10.678Z,15.73
2018-03-19T08:19:39.816Z,14.43
2018-03-19T08:22:08.918Z,17.23
2018-03-19T08:24:38.799Z,16.20
2018-03-19T08:27:07.875Z,15.43
2018-03-19T08:29:36.993Z,14.90
2018-03-19T08:32:06.115Z,14.80
2018-03-19T08:34:35.206Z,14.83
2018-03-19T08:37:05.078Z,14.53
2018-03-19T08:39:34.246Z,16.07
2018-03-19T08:42:03.349Z,14.30
2018-03-19T08:44:33.243Z,14.83
2018-03-19T08:47:03.145Z,14.17
2018-03-19T08:49:32.226Z,14.37
2018-03-19T08:52:01.347Z,14.37
2018-03-19T08:54:30.418Z,15.40
2018-03-19T08:56:59.550Z,16.10
2018-03-19T08:59:29.426Z,15.73
2018-03-19T09:01:58.533Z,14.67
2018-03-19T09:04:27.619Z,17.67
2018-03-19T09:06:56.710Z,14.93
2018-03-19T09:09:25.816Z,15.40
2018-03-19T09:11:54.934Z,14.00
2018-03-19T09:14:24.818Z,15.67
2018-03-19T09:16:53.925Z,15.60
2018-03-19T09:19:23.042Z,15.80
2018-03-19T09:21:52.890Z,14.50
2018-03-19T09:24:21.988Z,16.00
2018-03-19T09:26:51.099Z,14.37
2018-03-19T09:29:20.201Z,15.33
2018-03-19T09:31:49.350Z,14.60
2018-03-19T09:34:19.198Z,14.63
2018-03-19T09:36:48.316Z,16.53
2018-03-19T09:39:17.393Z,15.53
2018-03-19T09:41:46.511Z,14.80
2018-03-19T09:44:15.614Z,13.67
2018-03-19T09:46:44.702Z,14.27
2018-03-19T09:49:13.815Z,15.10
2018-03-19T09:51:42.918Z,15.63
2018-03-19T09:54:12.826Z,16.30
2018-03-19T09:56:41.931Z,16.60
2018-03-19T09:59:11.025Z,14.40
2018-03-19T10:01:40.154Z,14.50
2018-03-19T10:04:09.265Z,15.90
2018-03-19T10:06:38.390Z,15.43
2018-03-19T10:09:07.497Z,17.30
2018-03-19T10:11:36.604Z,15.60
2018-03-19T10:14:06.466Z,16.20
2018-03-19T10:16:35.578Z,15.00
2018-03-19T10:19:04.667Z,16.47
2018-03-19T10:21:33.813Z,14.33
2018-03-19T10:24:02.910Z,15.10
2018-03-19T10:26:32.774Z,15.93
2018-03-19T10:29:01.890Z,18.33
2018-03-19T10:31:31.042Z,15.47
2018-03-19T10:34:00.165Z,16.77
2018-03-19T10:36:29.274Z,15.03
2018-03-19T10:38:58.405Z,15.13
2018-03-19T10:41:28.264Z,17.47
2018-03-19T10:43:57.410Z,15.77
2018-03-19T10:46:26.501Z,16.40
2018-03-19T10:48:55.626Z,17.03
2018-03-19T10:51:25.499Z,16.03
2018-03-19T10:53:54.609Z,17.30
2018-03-19T10:56:23.715Z,17.63
2018-03-19T10:58:52.826Z,15.50
2018-03-19T11:01:28.300Z,16.30
2018-03-19T11:04:02.070Z,16.17
2018-03-19T11:19:59.328Z,16.10
2018-03-19T11:22:28.368Z,16.20
2018-03-19T11:24:58.378Z,16.53
2018-03-19T11:27:27.490Z,15.37
2018-03-19T11:29:56.618Z,18.73
2018-03-19T11:32:26.483Z,18.47
2018-03-19T11:34:55.577Z,17.03
2018-03-19T11:37:24.684Z,15.73
2018-03-19T11:39:54.665Z,17.80
2018-03-19T11:42:23.776Z,16.43
2018-03-19T11:44:53.642Z,15.13
2018-03-19T11:47:23.614Z,15.97
2018-03-19T11:49:52.703Z,18.93
2018-03-19T11:52:21.777Z,18.03
2018-03-19T11:54:50.900Z,18.03
2018-03-19T11:57:20.020Z,17.00
2018-03-19T11:59:49.122Z,16.13
2018-03-19T12:02:18.244Z,16.20
2018-03-19T12:04:48.129Z,17.67
2018-03-19T12:07:17.226Z,19.03
2018-03-19T12:09:46.342Z,18.20
2018-03-19T12:12:15.445Z,17.00
2018-03-19T12:14:45.305Z,17.40
2018-03-19T12:17:14.414Z,17.23
2018-03-19T12:19:43.492Z,17.30
2018-03-19T12:22:12.611Z,19.03
2018-03-19T12:24:41.840Z,19.53
2018-03-19T12:27:10.945Z,18.57
2018-03-19T12:29:40.832Z,16.50
2018-03-19T12:32:09.909Z,17.57
2018-03-19T12:34:39.024Z,16.83
2018-03-19T12:37:08.126Z,17.77
2018-03-19T12:39:37.240Z,18.77
2018-03-19T12:42:07.113Z,18.03
2018-03-19T12:44:36.223Z,18.00
2018-03-19T12:47:05.331Z,16.90
2018-03-19T12:49:34.447Z,18.43
2018-03-19T12:52:04.335Z,15.80
2018-03-19T12:54:33.440Z,17.20
2018-03-19T12:57:02.564Z,17.93
2018-03-19T12:59:31.669Z,16.23
2018-03-19T13:02:00.784Z,23.30
2018-03-19T13:04:29.901Z,21.50
2018-03-19T13:06:58.994Z,17.80
2018-03-19T13:09:28.110Z,19.17
2018-03-19T13:11:57.208Z,18.40
2018-03-19T13:14:26.310Z,18.97
2018-03-19T13:16:55.418Z,18.10
2018-03-19T13:19:24.508Z,18.00
2018-03-19T13:21:54.384Z,18.47
2018-03-19T13:24:23.478Z,20.27
2018-03-19T13:26:52.632Z,18.90
2018-03-19T13:29:22.517Z,20.37
2018-03-19T13:31:51.636Z,19.87
2018-03-19T13:34:21.501Z,19.53
2018-03-19T13:36:50.635Z,17.03
2018-03-19T13:39:19.714Z,16.13
2018-03-19T13:41:48.839Z,19.77
2018-03-19T13:44:18.703Z,20.00
2018-03-19T13:46:47.821Z,18.90
2018-03-19T13:49:16.925Z,17.63
2018-03-19T13:51:46.044Z,17.73
2018-03-19T13:54:15.942Z,20.50
2018-03-19T13:56:45.035Z,19.50
2018-03-19T13:59:14.155Z,15.97
2018-03-19T14:01:44.012Z,18.43
2018-03-19T14:04:13.127Z,15.83
2018-03-19T14:06:42.206Z,19.10
2018-03-19T14:09:11.355Z,17.20
2018-03-19T14:11:41.213Z,18.43
2018-03-19T14:14:10.321Z,18.40
2018-03-19T14:16:40.939Z,17.17
2018-03-19T14:19:10.089Z,18.37
2018-03-19T14:21:39.950Z,17.60
2018-03-19T14:24:09.052Z,18.57
2018-03-19T14:26:38.169Z,19.63
2018-03-19T14:29:08.042Z,20.00
2018-03-19T14:31:37.126Z,19.10
2018-03-19T14:34:06.323Z,17.93
2018-03-19T14:36:35.381Z,19.67
2018-03-19T14:39:04.505Z,21.63
2018-03-19T14:41:33.656Z,20.10
2018-03-19T14:44:03.529Z,19.90
2018-03-19T14:46:32.627Z,18.27
2018-03-19T14:49:01.750Z,16.07
2018-03-19T14:51:30.874Z,18.70
2018-03-19T14:54:00.009Z,18.30
2018-03-19T14:56:29.144Z,17.33
2018-03-19T14:58:58.273Z,16.20
2018-03-19T15:01:28.169Z,16.53
2018-03-19T15:03:58.251Z,17.03
2018-03-19T15:06:27.376Z,14.97
2018-03-19T15:08:56.485Z,16.83
2018-03-19T15:11:25.617Z,14.93
2018-03-19T15:13:54.739Z,17.10
2018-03-19T15:16:23.899Z,16.27
2018-03-19T15:18:53.781Z,18.23
2018-03-19T15:21:22.893Z,17.07
2018-03-19T15:23:53.935Z,16.03
2018-03-19T15:26:23.067Z,16.30
2018-03-19T15:28:52.182Z,15.80
2018-03-19T15:31:21.325Z,16.40
2018-03-19T15:33:50.443Z,15.53
2018-03-19T15:36:20.307Z,18.00
2018-03-19T15:38:49.440Z,16.20
2018-03-19T15:41:18.556Z,14.60
2018-03-19T15:43:48.854Z,18.83
2018-03-19T15:46:17.959Z,15.93
2018-03-19T15:48:47.859Z,17.43
2018-03-19T15:51:16.970Z,16.07
2018-03-19T15:53:46.841Z,15.90
2018-03-19T15:56:15.971Z,15.90
2018-03-19T15:58:45.090Z,19.03
2018-03-19T16:01:15.605Z,17.37
2018-03-19T16:03:44.684Z,17.83
2018-03-19T16:06:13.811Z,16.67
2018-03-19T16:08:44.715Z,18.23
2018-03-19T16:11:13.876Z,16.50
2018-03-19T16:13:43.894Z,15.30
2018-03-19T16:16:13.041Z,18.40
2018-03-19T16:18:42.855Z,17.13
2018-03-19T16:21:12.015Z,20.30
2018-03-19T16:23:41.127Z,17.80
2018-03-19T16:26:12.006Z,19.10
2018-03-19T16:28:42.737Z,18.57
2018-03-19T16:31:12.593Z,16.27
2018-03-19T16:33:42.563Z,14.50
2018-03-19T16:36:12.432Z,15.07
2018-03-19T16:38:41.556Z,15.80
2018-03-19T16:41:12.162Z,15.60
2018-03-19T16:43:41.294Z,16.83
2018-03-19T16:46:10.408Z,15.27
2018-03-19T16:48:40.302Z,15.00
2018-03-19T16:51:09.395Z,14.47
2018-03-19T16:53:38.508Z,17.73
2018-03-19T16:56:08.406Z,16.33
2018-03-19T16:58:37.500Z,15.30
2018-03-19T17:01:06.628Z,15.43
2018-03-19T17:03:35.747Z,15.70
2018-03-19T17:06:04.921Z,14.83
2018-03-19T17:08:33.996Z,16.23
2018-03-19T17:11:03.892Z,16.53
2018-03-19T17:13:32.999Z,14.03
2018-03-19T17:16:02.146Z,16.77
2018-03-19T17:18:31.252Z,17.30
2018-03-19T17:21:00.424Z,17.57
2018-03-19T17:23:29.548Z,19.37
2018-03-19T17:26:00.824Z,19.13
2018-03-19T17:28:29.937Z,18.47
2018-03-19T17:30:59.828Z,18.77
2018-03-19T17:33:28.938Z,18.53
2018-03-19T17:35:58.055Z,17.50
2018-03-19T17:38:27.967Z,16.90
2018-03-19T17:40:57.831Z,16.53
2018-03-19T17:43:26.981Z,17.00
2018-03-19T17:45:56.838Z,17.07
2018-03-19T17:48:25.987Z,16.77
2018-03-19T17:50:55.918Z,17.23
2018-03-19T17:53:25.778Z,16.80
2018-03-19T18:08:44.306Z,16.53
2018-03-19T18:11:13.447Z,17.27
2018-03-19T18:13:43.327Z,20.27
2018-03-19T18:16:12.457Z,22.03
2018-03-19T18:18:43.235Z,22.30
2018-03-19T18:21:12.381Z,22.47
2018-03-19T18:23:41.502Z,18.40
2018-03-19T18:26:11.386Z,18.30
2018-03-19T18:28:40.494Z,18.17
2018-03-19T18:31:09.622Z,16.97
2018-03-19T18:33:39.637Z,20.20
2018-03-19T18:36:08.736Z,19.57
2018-03-19T18:38:37.848Z,19.73
2018-03-19T18:41:06.957Z,18.57
2018-03-19T18:43:36.058Z,17.73
2018-03-19T18:46:05.167Z,21.07
2018-03-19T18:48:34.296Z,19.00
2018-03-19T18:51:04.180Z,19.00
2018-03-19T18:53:34.809Z,19.03
2018-03-19T18:56:04.675Z,20.30
2018-03-19T18:58:34.558Z,19.83
2018-03-19T19:01:03.678Z,20.43
2018-03-19T19:03:32.814Z,18.10
2018-03-19T19:06:02.700Z,17.00
2018-03-19T19:08:31.803Z,16.90
2018-03-19T19:11:00.920Z,18.00
2018-03-19T19:13:30.019Z,18.33
2018-03-19T19:15:59.159Z,19.47
2018-03-19T19:18:29.027Z,18.27
2018-03-19T19:20:58.146Z,20.33
2018-03-19T19:23:27.256Z,18.23
2018-03-19T19:25:57.144Z,17.50
2018-03-19T19:28:26.287Z,19.10
2018-03-19T19:30:56.177Z,18.13
2018-03-19T19:33:25.287Z,18.07
2018-03-19T19:35:55.170Z,16.27
2018-03-19T19:38:24.277Z,16.17
2018-03-19T19:40:53.411Z,15.40
2018-03-19T19:43:22.524Z,19.97
2018-03-19T19:45:51.640Z,16.50
2018-03-19T19:48:20.062Z,17.07
2018-03-19T19:50:49.024Z,17.07
2018-03-19T19:53:18.156Z,16.60
2018-03-19T19:55:48.053Z,20.93
2018-03-19T19:58:18.562Z,19.20
2018-03-19T20:00:47.679Z,21.27
2018-03-19T20:03:16.804Z,23.47
2018-03-19T20:05:46.699Z,24.00
2018-03-19T20:08:15.806Z,22.03
2018-03-19T20:10:45.674Z,22.70
2018-03-19T20:13:15.535Z,24.93
2018-03-19T20:15:44.678Z,23.60
2018-03-19T20:18:13.795Z,20.27
2018-03-19T20:20:42.928Z,19.30
2018-03-19T20:23:12.844Z,28.50
2018-03-19T20:25:42.759Z,25.93
2018-03-19T20:28:13.349Z,26.10
2018-03-19T20:30:42.499Z,24.47
2018-03-19T20:33:11.591Z,21.20
2018-03-19T20:35:40.713Z,18.67
2018-03-19T20:38:09.821Z,19.10
2018-03-19T20:40:38.957Z,17.87
2018-03-19T20:43:08.065Z,17.77
2018-03-19T20:45:37.209Z,16.80
2018-03-19T20:48:06.303Z,17.03
2018-03-19T20:50:35.454Z,18.10
2018-03-19T20:53:05.350Z,18.87
2018-03-19T20:55:34.451Z,18.93
2018-03-19T20:58:04.414Z,19.07
2018-03-19T21:00:33.542Z,16.87
2018-03-19T21:03:02.710Z,17.90
2018-03-19T21:05:31.811Z,20.50
2018-03-19T21:08:01.714Z,19.47
2018-03-19T21:10:30.862Z,19.00
2018-03-19T21:12:59.967Z,20.77
2018-03-19T21:15:29.070Z,17.60
2018-03-19T21:17:58.957Z,16.77
2018-03-19T21:20:28.071Z,18.67
2018-03-19T21:22:58.014Z,17.33
2018-03-19T21:25:27.104Z,17.60
2018-03-19T21:27:56.214Z,19.40
2018-03-19T21:30:25.356Z,20.97
2018-03-19T21:32:54.462Z,21.30
2018-03-19T21:35:23.564Z,21.97
2018-03-19T21:37:52.665Z,20.50
2018-03-19T21:40:22.543Z,23.83
2018-03-19T21:42:51.627Z,21.13
2018-03-19T21:45:20.737Z,20.90
2018-03-19T21:47:49.872Z,19.50
2018-03-19T21:50:18.982Z,20.23
2018-03-19T21:52:48.108Z,19.70
2018-03-19T21:55:17.218Z,19.60
2018-03-19T21:57:46.346Z,19.13
2018-03-19T22:00:15.450Z,20.33
2018-03-19T22:02:45.366Z,22.23
2018-03-19T22:05:14.442Z,21.00
2018-03-19T22:07:43.539Z,21.90
2018-03-19T22:10:12.673Z,23.20
2018-03-19T22:12:42.526Z,20.37
2018-03-19T22:15:11.639Z,18.30
2018-03-19T22:17:40.741Z,21.10
2018-03-19T22:20:09.842Z,20.90
2018-03-19T22:22:38.977Z,22.20
2018-03-19T22:25:08.088Z,19.77
2018-03-19T22:27:37.192Z,20.57
2018-03-19T22:30:06.278Z,20.17
2018-03-19T22:32:35.385Z,20.43
2018-03-19T22:35:04.511Z,18.80
2018-03-19T22:37:33.615Z,17.70
2018-03-19T22:40:02.706Z,18.00
2018-03-19T22:42:31.815Z,19.00
2018-03-19T22:45:01.676Z,15.80
2018-03-19T22:47:30.780Z,16.20
2018-03-19T22:49:59.881Z,17.37
2018-03-19T22:52:28.999Z,16.30
2018-03-19T22:54:58.093Z,16.40
2018-03-19T22:57:27.182Z,17.67
2018-03-19T22:59:56.303Z,16.67
2018-03-19T23:02:25.401Z,18.30
2018-03-19T23:18:35.213Z,16.57
2018-03-19T23:21:04.311Z,17.57
2018-03-19T23:23:33.418Z,17.70
2018-03-19T23:26:02.535Z,16.80
2018-03-19T23:28:32.382Z,17.93
2018-03-19T23:31:01.506Z,16.97
2018-03-19T23:33:30.635Z,16.93
2018-03-19T23:35:59.699Z,17.53
2018-03-19T23:38:28.795Z,16.60
2018-03-19T23:40:58.664Z,17.57
2018-03-19T23:43:27.764Z,18.07
2018-03-19T23:45:56.856Z,18.93
2018-03-19T23:48:25.943Z,15.87
2018-03-19T23:50:56.062Z,18.43
2018-03-19T23:53:25.930Z,18.10
2018-03-19T23:55:55.051Z,18.43
2018-03-19T23:58:24.173Z,17.00
